sensor_id;sensor_type;location;lat;lon;timestamp;pressure;altitude;pressure_sealevel;temperature;humidity
70521;BME280;58442;52.716;23.560;2023-12-04T00:01:00;101616.69;;;-0.97;73.52
70521;BME280;58442;52.716;23.560;2023-12-04T00:03:08;101612.96;;;-0.96;73.54
70521;BME280;58442;52.716;23.560;2023-12-04T00:05:09;101623.65;;;-0.96;73.48
70521;BME280;58442;52.716;23.560;2023-12-04T00:07:11;101619.35;;;-0.97;73.50
70521;BME280;58442;52.716;23.560;2023-12-04T00:09:13;101622.03;;;-0.97;73.52
70521;BME280;58442;52.716;23.560;2023-12-04T00:11:23;101621.80;;;-0.96;73.54
70521;BME280;58442;52.716;23.560;2023-12-04T00:13:24;101619.69;;;-0.94;73.50
70521;BME280;58442;52.716;23.560;2023-12-04T00:15:27;101619.98;;;-0.90;73.47
70521;BME280;58442;52.716;23.560;2023-12-04T00:17:28;101625.90;;;-0.88;73.34
70521;BME280;58442;52.716;23.560;2023-12-04T00:19:38;101626.13;;;-0.90;73.34
70521;BME280;58442;52.716;23.560;2023-12-04T00:21:39;101633.33;;;-0.90;73.35
70521;BME280;58442;52.716;23.560;2023-12-04T00:23:41;101621.85;;;-0.91;73.39
70521;BME280;58442;52.716;23.560;2023-12-04T00:25:43;101626.97;;;-0.89;73.37
70521;BME280;58442;52.716;23.560;2023-12-04T00:27:53;101632.05;;;-0.88;73.38
70521;BME280;58442;52.716;23.560;2023-12-04T00:29:55;101629.12;;;-0.86;73.38
70521;BME280;58442;52.716;23.560;2023-12-04T00:31:57;101629.12;;;-0.86;73.32
70521;BME280;58442;52.716;23.560;2023-12-04T00:33:58;101626.45;;;-0.86;73.33
70521;BME280;58442;52.716;23.560;2023-12-04T00:36:09;101623.52;;;-0.85;73.34
70521;BME280;58442;52.716;23.560;2023-12-04T00:38:11;101623.78;;;-0.86;73.33
70521;BME280;58442;52.716;23.560;2023-12-04T00:40:13;101627.80;;;-0.84;73.29
70521;BME280;58442;52.716;23.560;2023-12-04T00:42:15;101625.13;;;-0.84;73.28
70521;BME280;58442;52.716;23.560;2023-12-04T00:44:23;101617.93;;;-0.83;73.28
70521;BME280;58442;52.716;23.560;2023-12-04T00:46:25;101624.33;;;-0.84;73.28
70521;BME280;58442;52.716;23.560;2023-12-04T00:48:27;101621.66;;;-0.84;73.28
70521;BME280;58442;52.716;23.560;2023-12-04T00:52:59;101629.38;;;-0.88;73.35
70521;BME280;58442;52.716;23.560;2023-12-04T00:55:02;101621.37;;;-0.88;73.36
70521;BME280;58442;52.716;23.560;2023-12-04T00:57:04;101625.65;;;-0.87;73.36
70521;BME280;58442;52.716;23.560;2023-12-04T00:59:08;101629.12;;;-0.86;73.33
70521;BME280;58442;52.716;23.560;2023-12-04T01:01:10;101633.14;;;-0.84;73.28
70521;BME280;58442;52.716;23.560;2023-12-04T01:03:15;101624.33;;;-0.84;73.25
70521;BME280;58442;52.716;23.560;2023-12-04T01:05:17;101625.13;;;-0.84;73.21
70521;BME280;58442;52.716;23.560;2023-12-04T01:07:18;101626.99;;;-0.84;73.23
70521;BME280;58442;52.716;23.560;2023-12-04T01:09:20;101628.86;;;-0.85;73.27
70521;BME280;58442;52.716;23.560;2023-12-04T01:11:30;101628.86;;;-0.85;73.25
70521;BME280;58442;52.716;23.560;2023-12-04T01:13:32;101624.58;;;-0.86;73.31
70521;BME280;58442;52.716;23.560;2023-12-04T01:15:34;101630.73;;;-0.85;73.28
70521;BME280;58442;52.716;23.560;2023-12-04T01:17:37;101629.91;;;-0.86;73.32
70521;BME280;58442;52.716;23.560;2023-12-04T01:19:45;101626.99;;;-0.84;73.32
70521;BME280;58442;52.716;23.560;2023-12-04T01:21:47;101633.39;;;-0.85;73.28
70521;BME280;58442;52.716;23.560;2023-12-04T01:23:49;101635.52;;;-0.87;73.30
70521;BME280;58442;52.716;23.560;2023-12-04T01:25:51;101639.47;;;-0.90;73.38
70521;BME280;58442;52.716;23.560;2023-12-04T01:28:00;101633.33;;;-0.90;73.45
70521;BME280;58442;52.716;23.560;2023-12-04T01:30:03;101630.65;;;-0.90;73.51
70521;BME280;58442;52.716;23.560;2023-12-04T01:32:05;101630.65;;;-0.90;73.51
70521;BME280;58442;52.716;23.560;2023-12-04T01:34:07;101629.63;;;-0.89;73.53
70521;BME280;58442;52.716;23.560;2023-12-04T01:36:16;101633.90;;;-0.88;73.49
70521;BME280;58442;52.716;23.560;2023-12-04T01:38:17;101632.05;;;-0.88;73.50
70521;BME280;58442;52.716;23.560;2023-12-04T01:40:19;101626.45;;;-0.86;73.45
70521;BME280;58442;52.716;23.560;2023-12-04T01:42:21;101629.12;;;-0.86;73.47
70521;BME280;58442;52.716;23.560;2023-12-04T01:44:31;101632.84;;;-0.87;73.50
70521;BME280;58442;52.716;23.560;2023-12-04T01:46:33;101635.26;;;-0.86;73.51
70521;BME280;58442;52.716;23.560;2023-12-04T01:48:36;101635.26;;;-0.86;73.46
70521;BME280;58442;52.716;23.560;2023-12-04T01:50:38;101632.84;;;-0.87;73.52
70521;BME280;58442;52.716;23.560;2023-12-04T01:52:47;101631.23;;;-0.88;73.57
70521;BME280;58442;52.716;23.560;2023-12-04T01:54:50;101629.85;;;-0.91;73.65
70521;BME280;58442;52.716;23.560;2023-12-04T01:56:52;101632.52;;;-0.91;73.68
70521;BME280;58442;52.716;23.560;2023-12-04T01:58:54;101641.11;;;-0.89;73.66
70521;BME280;58442;52.716;23.560;2023-12-04T02:01:02;101639.80;;;-0.86;73.63
70521;BME280;58442;52.716;23.560;2023-12-04T02:03:06;101634.20;;;-0.85;73.54
70521;BME280;58442;52.716;23.560;2023-12-04T02:05:09;101639.54;;;-0.85;73.52
70521;BME280;58442;52.716;23.560;2023-12-04T02:07:12;101632.33;;;-0.84;73.55
70521;BME280;58442;52.716;23.560;2023-12-04T02:09:18;101632.33;;;-0.84;73.54
70521;BME280;58442;52.716;23.560;2023-12-04T02:11:20;101639.06;;;-0.81;73.60
70521;BME280;58442;52.716;23.560;2023-12-04T02:13:22;101641.73;;;-0.81;73.58
70521;BME280;58442;52.716;23.560;2023-12-04T02:15:24;101639.60;;;-0.79;73.53
70521;BME280;58442;52.716;23.560;2023-12-04T02:17:34;101638.28;;;-0.77;73.51
70521;BME280;58442;52.716;23.560;2023-12-04T02:19:36;101638.88;;;-0.75;73.47
70521;BME280;58442;52.716;23.560;2023-12-04T02:21:38;101640.48;;;-0.74;73.39
70521;BME280;58442;52.716;23.560;2023-12-04T02:23:39;101636.20;;;-0.75;73.38
70521;BME280;58442;52.716;23.560;2023-12-04T02:25:49;101635.87;;;-0.78;73.47
70521;BME280;58442;52.716;23.560;2023-12-04T02:27:53;101635.07;;;-0.79;73.55
70521;BME280;58442;52.716;23.560;2023-12-04T02:30:01;101635.07;;;-0.79;73.59
70521;BME280;58442;52.716;23.560;2023-12-04T02:32:05;101640.16;;;-0.77;73.57
70521;BME280;58442;52.716;23.560;2023-12-04T02:34:08;101641.20;;;-0.78;73.62
70521;BME280;58442;52.716;23.560;2023-12-04T02:36:12;101642.02;;;-0.78;73.63
70521;BME280;58442;52.716;23.560;2023-12-04T02:38:15;101636.68;;;-0.78;73.81
70521;BME280;58442;52.716;23.560;2023-12-04T02:40:17;101640.73;;;-0.75;73.68
70521;BME280;58442;52.716;23.560;2023-12-04T02:42:19;101636.74;;;-0.73;73.73
70521;BME280;58442;52.716;23.560;2023-12-04T02:44:21;101646.91;;;-0.70;73.60
70521;BME280;58442;52.716;23.560;2023-12-04T02:46:23;101636.81;;;-0.68;73.55
70521;BME280;58442;52.716;23.560;2023-12-04T02:48:24;101640.03;;;-0.66;73.48
70521;BME280;58442;52.716;23.560;2023-12-04T02:50:34;101636.81;;;-0.68;73.43
70521;BME280;58442;52.716;23.560;2023-12-04T02:52:36;101636.81;;;-0.68;73.51
70521;BME280;58442;52.716;23.560;2023-12-04T02:54:37;101636.81;;;-0.68;73.53
70521;BME280;58442;52.716;23.560;2023-12-04T02:56:39;101643.77;;;-0.67;73.54
70521;BME280;58442;52.716;23.560;2023-12-04T02:58:49;101634.95;;;-0.67;73.54
70521;BME280;58442;52.716;23.560;2023-12-04T03:00:51;101630.67;;;-0.68;73.50
70521;BME280;58442;52.716;23.560;2023-12-04T03:02:53;101628.48;;;-0.71;73.59
70521;BME280;58442;52.716;23.560;2023-12-04T03:04:55;101632.22;;;-0.72;73.61
70521;BME280;58442;52.716;23.560;2023-12-04T03:07:04;101629.00;;;-0.74;73.71
70521;BME280;58442;52.716;23.560;2023-12-04T03:09:06;101637.55;;;-0.72;73.72
70521;BME280;58442;52.716;23.560;2023-12-04T03:11:08;101638.35;;;-0.72;73.70
70521;BME280;58442;52.716;23.560;2023-12-04T03:13:10;101637.00;;;-0.74;73.70
70521;BME280;58442;52.716;23.560;2023-12-04T03:15:20;101639.66;;;-0.74;73.76
70521;BME280;58442;52.716;23.560;2023-12-04T03:17:21;101635.14;;;-0.74;73.82
70521;BME280;58442;52.716;23.560;2023-12-04T03:19:23;101643.44;;;-0.70;73.79
70521;BME280;58442;52.716;23.560;2023-12-04T03:21:25;101645.05;;;-0.69;73.73
70521;BME280;58442;52.716;23.560;2023-12-04T03:23:36;101652.02;;;-0.68;73.74
70521;BME280;58442;52.716;23.560;2023-12-04T03:25:37;101642.95;;;-0.67;73.74
70521;BME280;58442;52.716;23.560;2023-12-04T03:27:39;101635.50;;;-0.65;73.72
70521;BME280;58442;52.716;23.560;2023-12-04T03:29:41;101646.72;;;-0.63;73.65
70521;BME280;58442;52.716;23.560;2023-12-04T03:31:51;101636.30;;;-0.65;73.59
70521;BME280;58442;52.716;23.560;2023-12-04T03:33:52;101645.37;;;-0.66;73.68
70521;BME280;58442;52.716;23.560;2023-12-04T03:35:54;101646.98;;;-0.65;73.71
70521;BME280;58442;52.716;23.560;2023-12-04T03:37:56;101648.03;;;-0.66;73.67
70521;BME280;58442;52.716;23.560;2023-12-04T03:40:06;101643.24;;;-0.64;73.66
70521;BME280;58442;52.716;23.560;2023-12-04T03:42:08;101653.38;;;-0.66;73.64
70521;BME280;58442;52.716;23.560;2023-12-04T03:44:10;101656.05;;;-0.66;73.72
70521;BME280;58442;52.716;23.560;2023-12-04T03:46:11;101649.91;;;-0.66;73.70
70521;BME280;58442;52.716;23.560;2023-12-04T03:48:21;101661.39;;;-0.66;73.74
70521;BME280;58442;52.716;23.560;2023-12-04T03:50:22;101653.92;;;-0.64;73.77
70521;BME280;58442;52.716;23.560;2023-12-04T03:52:24;101653.13;;;-0.64;73.76
70521;BME280;58442;52.716;23.560;2023-12-04T03:54:26;101657.41;;;-0.63;73.76
70521;BME280;58442;52.716;23.560;2023-12-04T03:56:36;101664.12;;;-0.61;73.73
70521;BME280;58442;52.716;23.560;2023-12-04T03:58:38;101664.93;;;-0.60;73.72
70521;BME280;58442;52.716;23.560;2023-12-04T04:00:39;101671.08;;;-0.60;73.71
70521;BME280;58442;52.716;23.560;2023-12-04T04:02:44;101672.67;;;-0.59;73.72
70521;BME280;58442;52.716;23.560;2023-12-04T04:04:51;101669.76;;;-0.57;73.75
70521;BME280;58442;52.716;23.560;2023-12-04T04:06:53;101672.67;;;-0.59;73.71
70521;BME280;58442;52.716;23.560;2023-12-04T04:08:54;101673.48;;;-0.58;73.78
70521;BME280;58442;52.716;23.560;2023-12-04T04:10:56;101668.40;;;-0.60;73.81
70521;BME280;58442;52.716;23.560;2023-12-04T04:13:06;101672.62;;;-0.64;73.80
70521;BME280;58442;52.716;23.560;2023-12-04T04:15:08;101674.73;;;-0.66;73.91
70521;BME280;58442;52.716;23.560;2023-12-04T04:17:10;101670.45;;;-0.67;73.97
70521;BME280;58442;52.716;23.560;2023-12-04T04:19:12;101672.05;;;-0.66;74.03
70521;BME280;58442;52.716;23.560;2023-12-04T04:21:21;101667.52;;;-0.65;74.00
70521;BME280;58442;52.716;23.560;2023-12-04T04:23:23;101673.12;;;-0.67;74.05
70521;BME280;58442;52.716;23.560;2023-12-04T04:25:25;101672.05;;;-0.66;74.07
70521;BME280;58442;52.716;23.560;2023-12-04T04:27:26;101669.94;;;-0.64;74.09
70521;BME280;58442;52.716;23.560;2023-12-04T04:29:37;101676.88;;;-0.63;74.08
70521;BME280;58442;52.716;23.560;2023-12-04T04:31:38;101678.53;;;-0.62;74.08
70521;BME280;58442;52.716;23.560;2023-12-04T04:33:40;101677.21;;;-0.59;74.05
70521;BME280;58442;52.716;23.560;2023-12-04T04:35:41;101675.09;;;-0.57;74.03
70521;BME280;58442;52.716;23.560;2023-12-04T04:37:53;101677.28;;;-0.54;73.95
70521;BME280;58442;52.716;23.560;2023-12-04T04:39:54;101681.55;;;-0.53;73.91
70521;BME280;58442;52.716;23.560;2023-12-04T04:41:56;101678.89;;;-0.53;73.95
70521;BME280;58442;52.716;23.560;2023-12-04T04:43:57;101682.36;;;-0.52;73.94
70521;BME280;58442;52.716;23.560;2023-12-04T04:46:08;101679.70;;;-0.52;73.98
70521;BME280;58442;52.716;23.560;2023-12-04T04:48:09;101679.45;;;-0.51;73.99
70521;BME280;58442;52.716;23.560;2023-12-04T04:50:11;101683.46;;;-0.48;73.97
70521;BME280;58442;52.716;23.560;2023-12-04T04:52:13;101681.04;;;-0.50;73.97
70521;BME280;58442;52.716;23.560;2023-12-04T04:54:23;101680.23;;;-0.50;74.02
70521;BME280;58442;52.716;23.560;2023-12-04T04:56:25;101680.23;;;-0.50;74.07
70521;BME280;58442;52.716;23.560;2023-12-04T04:58:26;101678.13;;;-0.48;74.09
70521;BME280;58442;52.716;23.560;2023-12-04T05:00:28;101683.77;;;-0.45;74.03
70521;BME280;58442;52.716;23.560;2023-12-04T05:02:38;101683.52;;;-0.43;73.94
70521;BME280;58442;52.716;23.560;2023-12-04T05:04:40;101686.20;;;-0.43;73.94
70521;BME280;58442;52.716;23.560;2023-12-04T05:06:41;101680.85;;;-0.43;73.92
70521;BME280;58442;52.716;23.560;2023-12-04T05:08:43;101688.87;;;-0.43;73.95
70521;BME280;58442;52.716;23.560;2023-12-04T05:10:53;101690.25;;;-0.41;73.98
70521;BME280;58442;52.716;23.560;2023-12-04T05:12:55;101698.80;;;-0.39;73.93
70521;BME280;58442;52.716;23.560;2023-12-04T05:14:57;101695.88;;;-0.37;73.88
70521;BME280;58442;52.716;23.560;2023-12-04T05:16:58;101698.29;;;-0.36;73.89
70521;BME280;58442;52.716;23.560;2023-12-04T05:19:08;101700.96;;;-0.36;73.86
70521;BME280;58442;52.716;23.560;2023-12-04T05:21:10;101699.61;;;-0.38;73.91
70521;BME280;58442;52.716;23.560;2023-12-04T05:23:12;101698.01;;;-0.39;73.95
70521;BME280;58442;52.716;23.560;2023-12-04T05:25:14;101695.08;;;-0.38;73.99
70521;BME280;58442;52.716;23.560;2023-12-04T05:27:24;101703.09;;;-0.38;73.98
70521;BME280;58442;52.716;23.560;2023-12-04T05:29:25;101702.28;;;-0.38;74.04
70521;BME280;58442;52.716;23.560;2023-12-04T05:31:27;101701.73;;;-0.40;74.09
70521;BME280;58442;52.716;23.560;2023-12-04T05:33:29;101700.09;;;-0.41;74.13
70521;BME280;58442;52.716;23.560;2023-12-04T05:35:39;101700.09;;;-0.41;74.19
70521;BME280;58442;52.716;23.560;2023-12-04T05:37:40;101700.35;;;-0.43;74.27
70521;BME280;58442;52.716;23.560;2023-12-04T05:39:42;101702.21;;;-0.43;74.30
70521;BME280;58442;52.716;23.560;2023-12-04T05:41:44;101713.71;;;-0.43;74.33
70521;BME280;58442;52.716;23.560;2023-12-04T05:43:54;101717.17;;;-0.42;74.36
70521;BME280;58442;52.716;23.560;2023-12-04T05:45:56;101713.71;;;-0.43;74.38
70521;BME280;58442;52.716;23.560;2023-12-04T05:47:57;101714.50;;;-0.42;74.38
70521;BME280;58442;52.716;23.560;2023-12-04T05:49:59;101710.77;;;-0.41;74.36
70521;BME280;58442;52.716;23.560;2023-12-04T05:52:09;101717.17;;;-0.42;74.18
70521;BME280;58442;52.716;23.560;2023-12-04T05:54:11;101716.63;;;-0.44;74.37
70521;BME280;58442;52.716;23.560;2023-12-04T05:56:12;101717.70;;;-0.45;74.43
70521;BME280;58442;52.716;23.560;2023-12-04T05:58:14;101723.58;;;-0.43;74.42
70521;BME280;58442;52.716;23.560;2023-12-04T06:00:24;101729.98;;;-0.44;74.38
70521;BME280;58442;52.716;23.560;2023-12-04T06:02:26;101736.93;;;-0.43;74.45
70521;BME280;58442;52.716;23.560;2023-12-04T06:04:31;101736.68;;;-0.42;74.38
70521;BME280;58442;52.716;23.560;2023-12-04T06:06:33;101741.21;;;-0.42;74.31
70521;BME280;58442;52.716;23.560;2023-12-04T06:08:39;101741.21;;;-0.42;74.34
70521;BME280;58442;52.716;23.560;2023-12-04T06:10:41;101750.83;;;-0.41;74.35
70521;BME280;58442;52.716;23.560;2023-12-04T06:12:42;101746.55;;;-0.42;74.35
70521;BME280;58442;52.716;23.560;2023-12-04T06:14:44;101745.75;;;-0.43;74.35
70521;BME280;58442;52.716;23.560;2023-12-04T06:16:54;101746.55;;;-0.42;74.36
70521;BME280;58442;52.716;23.560;2023-12-04T06:18:56;101737.48;;;-0.41;74.32
70521;BME280;58442;52.716;23.560;2023-12-04T06:20:57;101735.88;;;-0.42;74.30
70521;BME280;58442;52.716;23.560;2023-12-04T06:22:59;101734.80;;;-0.41;74.28
70521;BME280;58442;52.716;23.560;2023-12-04T06:25:10;101736.20;;;-0.39;74.25
70521;BME280;58442;52.716;23.560;2023-12-04T06:27:16;101741.53;;;-0.39;74.21
70521;BME280;58442;52.716;23.560;2023-12-04T06:29:21;101742.89;;;-0.36;74.11
70521;BME280;58442;52.716;23.560;2023-12-04T06:31:23;101738.60;;;-0.37;74.10
70521;BME280;58442;52.716;23.560;2023-12-04T06:33:25;101741.28;;;-0.37;74.08
70521;BME280;58442;52.716;23.560;2023-12-04T06:35:27;101751.70;;;-0.36;74.07
70521;BME280;58442;52.716;23.560;2023-12-04T06:37:30;101747.98;;;-0.35;73.99
70521;BME280;58442;52.716;23.560;2023-12-04T06:39:33;101751.96;;;-0.37;74.00
70521;BME280;58442;52.716;23.560;2023-12-04T06:41:41;101746.63;;;-0.37;74.06
70521;BME280;58442;52.716;23.560;2023-12-04T06:43:43;101750.61;;;-0.40;74.09
70521;BME280;58442;52.716;23.560;2023-12-04T06:45:46;101753.02;;;-0.38;74.11
70521;BME280;58442;52.716;23.560;2023-12-04T06:47:48;101742.63;;;-0.35;74.08
70521;BME280;58442;52.716;23.560;2023-12-04T06:49:55;101744.27;;;-0.34;74.00
70521;BME280;58442;52.716;23.560;2023-12-04T06:51:58;101746.69;;;-0.32;74.02
70521;BME280;58442;52.716;23.560;2023-12-04T06:54:00;101748.05;;;-0.30;73.96
70521;BME280;58442;52.716;23.560;2023-12-04T06:56:02;101753.93;;;-0.28;73.91
70521;BME280;58442;52.716;23.560;2023-12-04T06:58:10;101744.89;;;-0.26;73.90
70521;BME280;58442;52.716;23.560;2023-12-04T07:00:12;101754.26;;;-0.24;73.87
70521;BME280;58442;52.716;23.560;2023-12-04T07:02:17;101757.48;;;-0.22;73.81
70521;BME280;58442;52.716;23.560;2023-12-04T07:04:19;101753.73;;;-0.21;73.78
70521;BME280;58442;52.716;23.560;2023-12-04T07:06:25;101754.58;;;-0.20;73.80
70521;BME280;58442;52.716;23.560;2023-12-04T07:08:27;101761.54;;;-0.19;73.77
70521;BME280;58442;52.716;23.560;2023-12-04T07:10:29;101763.95;;;-0.18;73.76
70521;BME280;58442;52.716;23.560;2023-12-04T07:12:30;101770.91;;;-0.17;73.75
70521;BME280;58442;52.716;23.560;2023-12-04T07:14:41;101775.18;;;-0.16;73.73
70521;BME280;58442;52.716;23.560;2023-12-04T07:16:43;101769.59;;;-0.14;73.73
70521;BME280;58442;52.716;23.560;2023-12-04T07:18:44;101768.55;;;-0.13;73.88
70521;BME280;58442;52.716;23.560;2023-12-04T07:20:46;101771.78;;;-0.11;73.71
70521;BME280;58442;52.716;23.560;2023-12-04T07:22:56;101771.58;;;-0.05;73.63
70521;BME280;58442;52.716;23.560;2023-12-04T07:24:59;101768.97;;;0.01;73.55
70521;BME280;58442;52.716;23.560;2023-12-04T07:27:01;101773.53;;;0.05;73.42
70521;BME280;58442;52.716;23.560;2023-12-04T07:29:03;101774.92;;;0.08;73.32
70521;BME280;58442;52.716;23.560;2023-12-04T07:31:11;101776.54;;;0.09;73.36
70521;BME280;58442;52.716;23.560;2023-12-04T07:33:13;101780.81;;;0.10;73.33
70521;BME280;58442;52.716;23.560;2023-12-04T07:35:14;101782.43;;;0.11;73.36
70521;BME280;58442;52.716;23.560;2023-12-04T07:37:16;101778.70;;;0.12;73.32
70521;BME280;58442;52.716;23.560;2023-12-04T07:39:26;101779.49;;;0.12;73.32
70521;BME280;58442;52.716;23.560;2023-12-04T07:41:28;101784.61;;;0.14;73.34
70521;BME280;58442;52.716;23.560;2023-12-04T07:43:29;101777.40;;;0.14;73.27
70521;BME280;58442;52.716;23.560;2023-12-04T07:45:31;101783.55;;;0.15;73.25
70521;BME280;58442;52.716;23.560;2023-12-04T07:47:41;101780.88;;;0.15;73.28
70521;BME280;58442;52.716;23.560;2023-12-04T07:49:45;101786.23;;;0.15;73.24
70521;BME280;58442;52.716;23.560;2023-12-04T07:51:46;101781.11;;;0.13;73.25
70521;BME280;58442;52.716;23.560;2023-12-04T07:53:48;101785.16;;;0.16;73.21
70521;BME280;58442;52.716;23.560;2023-12-04T07:55:56;101787.57;;;0.17;73.20
70521;BME280;58442;52.716;23.560;2023-12-04T07:57:58;101791.05;;;0.18;73.20
70521;BME280;58442;52.716;23.560;2023-12-04T07:59:59;101789.99;;;0.19;73.20
70521;BME280;58442;52.716;23.560;2023-12-04T08:02:01;101798.59;;;0.21;73.21
70521;BME280;58442;52.716;23.560;2023-12-04T08:04:11;101794.27;;;0.20;73.21
70521;BME280;58442;52.716;23.560;2023-12-04T08:06:13;101795.34;;;0.19;73.20
70521;BME280;58442;52.716;23.560;2023-12-04T08:08:14;101799.39;;;0.21;73.21
70521;BME280;58442;52.716;23.560;2023-12-04T08:10:16;101790.30;;;0.22;73.16
70521;BME280;58442;52.716;23.560;2023-12-04T08:12:26;101791.18;;;0.28;73.11
70521;BME280;58442;52.716;23.560;2023-12-04T08:14:28;101797.36;;;0.34;73.18
70521;BME280;58442;52.716;23.560;2023-12-04T08:16:30;101793.38;;;0.36;72.99
70521;BME280;58442;52.716;23.560;2023-12-04T08:18:31;101800.09;;;0.39;72.94
70521;BME280;58442;52.716;23.560;2023-12-04T08:20:41;101801.21;;;0.43;72.91
70521;BME280;58442;52.716;23.560;2023-12-04T08:22:43;101797.21;;;0.45;72.81
70521;BME280;58442;52.716;23.560;2023-12-04T08:24:46;101799.07;;;0.45;72.77
70521;BME280;58442;52.716;23.560;2023-12-04T08:26:47;101803.10;;;0.47;72.76
70521;BME280;58442;52.716;23.560;2023-12-04T08:28:56;101801.00;;;0.49;72.63
70521;BME280;58442;52.716;23.560;2023-12-04T08:30:58;101805.29;;;0.50;72.47
70521;BME280;58442;52.716;23.560;2023-12-04T08:32:59;101807.44;;;0.53;72.35
70521;BME280;58442;52.716;23.560;2023-12-04T08:35:01;101810.98;;;0.59;72.27
70521;BME280;58442;52.716;23.560;2023-12-04T08:37:11;101819.32;;;0.63;72.18
70521;BME280;58442;52.716;23.560;2023-12-04T08:39:13;101822.48;;;0.60;72.20
70521;BME280;58442;52.716;23.560;2023-12-04T08:41:15;101824.40;;;0.64;72.05
70521;BME280;58442;52.716;23.560;2023-12-04T08:43:17;101823.60;;;0.64;72.07
70521;BME280;58442;52.716;23.560;2023-12-04T08:45:26;101812.95;;;0.69;71.92
70521;BME280;58442;52.716;23.560;2023-12-04T08:47:28;101820.46;;;0.72;71.83
70521;BME280;58442;52.716;23.560;2023-12-04T08:49:30;101826.35;;;0.74;71.84
70521;BME280;58442;52.716;23.560;2023-12-04T08:51:31;101821.31;;;0.77;71.80
70521;BME280;58442;52.716;23.560;2023-12-04T08:53:41;101832.07;;;0.83;71.63
70521;BME280;58442;52.716;23.560;2023-12-04T08:55:43;101836.90;;;0.86;71.56
70521;BME280;58442;52.716;23.560;2023-12-04T08:57:45;101838.24;;;0.88;71.50
70521;BME280;58442;52.716;23.560;2023-12-04T08:59:47;101836.96;;;0.96;71.40
70521;BME280;58442;52.716;23.560;2023-12-04T09:01:56;101833.52;;;1.00;71.35
70521;BME280;58442;52.716;23.560;2023-12-04T09:03:58;101833.52;;;1.00;71.23
70521;BME280;58442;52.716;23.560;2023-12-04T09:06:00;101839.20;;;1.04;71.09
70521;BME280;58442;52.716;23.560;2023-12-04T09:08:01;101840.50;;;1.01;71.12
70521;BME280;58442;52.716;23.560;2023-12-04T09:10:11;101836.42;;;0.94;71.13
70521;BME280;58442;52.716;23.560;2023-12-04T09:12:13;101841.18;;;0.87;71.22
70521;BME280;58442;52.716;23.560;2023-12-04T09:14:15;101842.79;;;0.88;71.13
70521;BME280;58442;52.716;23.560;2023-12-04T09:16:17;101841.99;;;0.87;71.12
70521;BME280;58442;52.716;23.560;2023-12-04T09:18:26;101840.64;;;0.85;71.06
70521;BME280;58442;52.716;23.560;2023-12-04T09:20:28;101842.51;;;0.84;70.99
70521;BME280;58442;52.716;23.560;2023-12-04T09:22:30;101847.01;;;0.78;71.12
70521;BME280;58442;52.716;23.560;2023-12-04T09:24:31;101844.27;;;0.73;71.17
70521;BME280;58442;52.716;23.560;2023-12-04T09:26:42;101845.05;;;0.69;71.25
70521;BME280;58442;52.716;23.560;2023-12-04T09:28:45;101839.13;;;0.67;71.14
70521;BME280;58442;52.716;23.560;2023-12-04T09:30:47;101840.95;;;0.61;71.23
70521;BME280;58442;52.716;23.560;2023-12-04T09:32:49;101845.48;;;0.61;71.24
70521;BME280;58442;52.716;23.560;2023-12-04T09:34:57;101844.13;;;0.58;71.15
70521;BME280;58442;52.716;23.560;2023-12-04T09:36:59;101843.93;;;0.65;71.12
70521;BME280;58442;52.716;23.560;2023-12-04T09:39:01;101844.80;;;0.70;71.00
70521;BME280;58442;52.716;23.560;2023-12-04T09:41:06;101843.98;;;0.70;70.99
70521;BME280;58442;52.716;23.560;2023-12-04T09:43:12;101839.70;;;0.69;70.88
70521;BME280;58442;52.716;23.560;2023-12-04T09:45:13;101838.85;;;0.63;70.85
70521;BME280;58442;52.716;23.560;2023-12-04T09:47:19;101846.55;;;0.60;70.96
70521;BME280;58442;52.716;23.560;2023-12-04T09:49:22;101838.24;;;0.56;70.95
70521;BME280;58442;52.716;23.560;2023-12-04T09:51:27;101842.79;;;0.56;70.91
70521;BME280;58442;52.716;23.560;2023-12-04T09:53:30;101837.93;;;0.52;70.94
70521;BME280;58442;52.716;23.560;2023-12-04T09:55:32;101841.66;;;0.51;70.91
70521;BME280;58442;52.716;23.560;2023-12-04T09:57:34;101841.98;;;0.55;70.71
70521;BME280;58442;52.716;23.560;2023-12-04T09:59:44;101845.69;;;0.54;70.84
70521;BME280;58442;52.716;23.560;2023-12-04T10:01:46;101849.23;;;0.60;70.72
70521;BME280;58442;52.716;23.560;2023-12-04T10:03:48;101845.80;;;0.64;70.66
70521;BME280;58442;52.716;23.560;2023-12-04T10:05:50;101852.77;;;0.65;70.55
70521;BME280;58442;52.716;23.560;2023-12-04T10:07:57;101849.02;;;0.66;70.43
70521;BME280;58442;52.716;23.560;2023-12-04T10:09:58;101848.73;;;0.63;70.46
70521;BME280;58442;52.716;23.560;2023-12-04T10:12:00;101855.70;;;0.64;70.40
70521;BME280;58442;52.716;23.560;2023-12-04T10:14:02;101855.19;;;0.67;70.33
70521;BME280;58442;52.716;23.560;2023-12-04T10:16:12;101845.61;;;0.71;70.28
70521;BME280;58442;52.716;23.560;2023-12-04T10:20:27;101845.61;;;0.71;70.23
70521;BME280;58442;52.716;23.560;2023-12-04T10:22:30;101846.09;;;0.68;70.13
70521;BME280;58442;52.716;23.560;2023-12-04T10:24:33;101841.87;;;0.72;70.05
70521;BME280;58442;52.716;23.560;2023-12-04T10:26:36;101849.95;;;0.77;69.95
70521;BME280;58442;52.716;23.560;2023-12-04T10:28:38;101847.26;;;0.77;69.92
70521;BME280;58442;52.716;23.560;2023-12-04T10:30:42;101846.20;;;0.78;69.97
70521;BME280;58442;52.716;23.560;2023-12-04T10:32:47;101847.81;;;0.79;69.95
70521;BME280;58442;52.716;23.560;2023-12-04T10:34:48;101846.20;;;0.78;69.79
70521;BME280;58442;52.716;23.560;2023-12-04T10:36:51;101842.72;;;0.77;69.79
70521;BME280;58442;52.716;23.560;2023-12-04T10:38:58;101846.70;;;0.75;69.85
70521;BME280;58442;52.716;23.560;2023-12-04T10:43:23;101841.18;;;0.87;69.72
70521;BME280;58442;52.716;23.560;2023-12-04T10:45:25;101841.50;;;0.90;69.65
70521;BME280;58442;52.716;23.560;2023-12-04T10:47:29;101842.09;;;0.97;69.36